createdAt,value
2019-01-28T00:02:59.439Z,98600.91
2019-01-28T00:07:52.394Z,98601.35
2019-01-28T00:12:45.770Z,98610.41
2019-01-28T00:17:40.403Z,98594.48
2019-01-28T00:22:34.686Z,98600.30
2019-01-28T00:27:27.580Z,98603.55
2019-01-28T00:32:20.442Z,98595.95
2019-01-28T00:37:13.277Z,98594.31
2019-01-28T00:42:06.100Z,98595.02
2019-01-28T00:46:58.970Z,98596.40
2019-01-28T00:51:51.847Z,98591.56
2019-01-28T00:56:47.634Z,98594.07
2019-01-28T01:01:40.485Z,98582.94
2019-01-28T01:06:33.426Z,98594.66
2019-01-28T01:11:26.310Z,98586.51
2019-01-28T01:16:19.176Z,98576.75
2019-01-28T01:21:12.016Z,98581.31
2019-01-28T01:26:04.950Z,98581.28
2019-01-28T01:30:57.802Z,98584.80
2019-01-28T01:35:50.667Z,98577.08
2019-01-28T01:40:43.524Z,98585.05
2019-01-28T01:45:36.359Z,98580.31
2019-01-28T01:50:29.204Z,98575.47
2019-01-28T01:55:22.047Z,98577.51
2019-01-28T02:00:17.659Z,98569.12
2019-01-28T02:05:10.921Z,98556.70
2019-01-28T02:10:05.939Z,98557.20
2019-01-28T02:14:58.755Z,98550.64
2019-01-28T02:19:51.628Z,98550.66
2019-01-28T02:24:44.478Z,98549.70
2019-01-28T02:29:37.301Z,98535.30
2019-01-28T02:34:30.151Z,98527.56
2019-01-28T02:39:22.959Z,98525.73
2019-01-28T02:44:15.825Z,98511.50
2019-01-28T02:49:08.642Z,98508.17
2019-01-28T02:54:01.500Z,98500.75
2019-01-28T02:58:54.336Z,98501.64
2019-01-28T03:03:47.217Z,98480.83
2019-01-28T03:08:40.074Z,98474.41
2019-01-28T03:13:32.909Z,98456.38
2019-01-28T03:18:25.742Z,98452.53
2019-01-28T03:23:19.917Z,98452.64
2019-01-28T03:28:12.791Z,98445.84
2019-01-28T03:33:05.851Z,98445.56
2019-01-28T03:37:59.665Z,98443.72
2019-01-28T03:42:52.686Z,98441.51
2019-01-28T03:47:45.668Z,98439.09
2019-01-28T03:52:38.815Z,98439.31
2019-01-28T03:57:31.640Z,98437.12
2019-01-28T04:02:24.517Z,98437.83
2019-01-28T04:07:17.327Z,98442.16
2019-01-28T04:12:10.204Z,98438.04
2019-01-28T04:17:03.004Z,98435.81
2019-01-28T04:21:55.836Z,98423.22
2019-01-28T04:26:48.666Z,98422.52
2019-01-28T04:31:41.505Z,98426.08
2019-01-28T04:36:34.337Z,98434.80
2019-01-28T04:41:27.183Z,98429.98
2019-01-28T04:46:20.002Z,98424.11
2019-01-28T04:51:12.840Z,98425.45
2019-01-28T04:56:05.665Z,98425.23
2019-01-28T05:00:58.527Z,98419.69
2019-01-28T05:05:51.435Z,98417.93
2019-01-28T05:10:44.339Z,98422.20
2019-01-28T05:15:37.195Z,98420.41
2019-01-28T05:20:30.028Z,98416.66
2019-01-28T05:25:22.872Z,98420.55
2019-01-28T05:30:19.007Z,98415.77
2019-01-28T05:35:13.957Z,98422.42
2019-01-28T05:40:09.895Z,98420.98
2019-01-28T05:45:03.665Z,98384.08
2019-01-28T05:49:56.528Z,98417.39
2019-01-28T05:54:49.341Z,98412.24
2019-01-28T05:59:42.190Z,98418.41
2019-01-28T06:04:35.040Z,98428.41
2019-01-28T06:09:27.940Z,98422.87
2019-01-28T06:14:20.791Z,98419.92
2019-01-28T06:19:13.601Z,98425.33
2019-01-28T06:24:06.435Z,98436.07
2019-01-28T06:28:59.253Z,98437.92
2019-01-28T06:33:52.148Z,98441.88
2019-01-28T06:38:44.966Z,98448.25
2019-01-28T06:43:37.804Z,98443.84
2019-01-28T06:48:30.653Z,98461.93
2019-01-28T06:53:23.604Z,98461.70
2019-01-28T06:58:16.420Z,98470.15
2019-01-28T07:03:09.277Z,98468.05
2019-01-28T07:08:02.092Z,98468.95
2019-01-28T07:12:55.434Z,98474.21
2019-01-28T07:17:54.683Z,98486.90
2019-01-28T07:22:43.116Z,98489.09
2019-01-28T07:27:35.961Z,98504.73
2019-01-28T07:32:28.811Z,98489.55
2019-01-28T07:37:21.680Z,98517.15
2019-01-28T07:42:16.313Z,98521.83
2019-01-28T07:47:09.209Z,98519.80
2019-01-28T07:52:02.048Z,98527.61
2019-01-28T07:56:54.911Z,98533.08
2019-01-28T08:01:47.767Z,98523.52
2019-01-28T08:06:40.833Z,98537.12
2019-01-28T08:11:33.664Z,98533.55
2019-01-28T08:16:26.532Z,98546.69
2019-01-28T08:21:19.355Z,98546.38
2019-01-28T08:26:12.190Z,98552.87
2019-01-28T08:31:05.020Z,98556.59
2019-01-28T08:35:57.989Z,98566.47
2019-01-28T08:40:50.836Z,98562.66
2019-01-28T08:45:43.743Z,98560.63
2019-01-28T08:50:36.709Z,98571.50
2019-01-28T08:55:29.752Z,98583.22
2019-01-28T09:00:29.779Z,98581.30
2019-01-28T09:05:23.301Z,98589.95
2019-01-28T09:10:18.196Z,98597.39
2019-01-28T09:15:13.825Z,98602.88
2019-01-28T09:20:11.544Z,98614.11
2019-01-28T09:25:06.292Z,98631.10
2019-01-28T09:29:59.224Z,98641.05
2019-01-28T09:34:52.379Z,98649.69
2019-01-28T09:39:45.333Z,98664.35
2019-01-28T09:44:38.452Z,98672.23
2019-01-28T09:49:32.836Z,98684.87
2019-01-28T09:54:25.776Z,98695.84
2019-01-28T09:59:18.631Z,98701.89
2019-01-28T10:04:11.644Z,98707.08
2019-01-28T10:09:10.138Z,98721.67
2019-01-28T10:14:02.913Z,98717.59
2019-01-28T10:18:55.783Z,98739.66
2019-01-28T10:23:48.739Z,98748.89
2019-01-28T10:28:42.085Z,98757.52
2019-01-28T10:33:34.931Z,98764.88
2019-01-28T10:38:27.957Z,98780.80
2019-01-28T10:43:20.857Z,98791.03
2019-01-28T10:48:13.707Z,98800.27
2019-01-28T10:53:07.176Z,98813.47
2019-01-28T10:58:00.339Z,98825.19
2019-01-28T11:02:53.954Z,98835.92
2019-01-28T11:07:46.914Z,98846.91
2019-01-28T11:12:39.773Z,98858.37
2019-01-28T11:17:33.116Z,98854.42
2019-01-28T11:22:26.109Z,98871.16
2019-01-28T11:27:19.028Z,98875.09
2019-01-28T11:32:11.961Z,98883.20
2019-01-28T11:37:05.709Z,98886.34
2019-01-28T11:41:58.726Z,98895.80
2019-01-28T11:46:51.586Z,98915.02
2019-01-28T11:51:44.428Z,98914.06
2019-01-28T11:56:37.346Z,98920.08
2019-01-28T12:01:31.197Z,98940.41
2019-01-28T12:06:24.293Z,98957.37
2019-01-28T12:11:17.191Z,98968.68
2019-01-28T12:16:10.058Z,98961.17
2019-01-28T12:21:03.344Z,98971.50
2019-01-28T12:25:56.256Z,98980.08
2019-01-28T12:30:49.216Z,98988.22
2019-01-28T12:35:42.224Z,99002.19
2019-01-28T12:40:35.067Z,99016.98
2019-01-28T12:45:29.179Z,99036.17
2019-01-28T12:50:22.800Z,99048.48
2019-01-28T12:55:17.384Z,99045.63
2019-01-28T13:00:25.368Z,99073.50
2019-01-28T13:05:20.408Z,99071.23
2019-01-28T13:10:17.424Z,99082.97
2019-01-28T13:15:15.867Z,99091.67
2019-01-28T13:20:09.242Z,99109.25
2019-01-28T13:25:02.484Z,99122.20
2019-01-28T13:29:57.425Z,99133.58
2019-01-28T13:34:50.450Z,99147.39
2019-01-28T13:39:45.100Z,99162.84
2019-01-28T13:44:42.841Z,99168.17
2019-01-28T13:49:40.542Z,99166.16
2019-01-28T13:54:35.392Z,99188.89
2019-01-28T13:59:28.444Z,99179.11
2019-01-28T14:04:24.342Z,99201.39
2019-01-28T14:09:21.380Z,99209.93
2019-01-28T14:14:14.272Z,99233.58
2019-01-28T14:19:08.600Z,99224.47
2019-01-28T14:24:01.942Z,99245.98
2019-01-28T14:28:54.816Z,99261.39
2019-01-28T14:33:47.925Z,99275.44
2019-01-28T14:38:40.981Z,99289.22
2019-01-28T14:43:34.058Z,99288.84
2019-01-28T14:48:27.395Z,99304.16
2019-01-28T14:53:20.411Z,99321.30
2019-01-28T14:58:16.469Z,99343.36
2019-01-28T15:03:09.007Z,99336.77
2019-01-28T15:08:02.508Z,99335.66
2019-01-28T15:12:56.936Z,99355.53
2019-01-28T15:17:49.864Z,99357.95
2019-01-28T15:22:43.401Z,99376.80
2019-01-28T15:27:37.384Z,99387.84
2019-01-28T15:32:30.386Z,99387.55
2019-01-28T15:37:25.077Z,99397.76
2019-01-28T15:42:18.453Z,99411.66
2019-01-28T15:47:11.428Z,99420.72
2019-01-28T15:52:05.867Z,99431.55
2019-01-28T15:56:59.321Z,99448.24
2019-01-28T16:01:55.346Z,99454.15
2019-01-28T16:06:48.278Z,99454.14
2019-01-28T16:11:41.271Z,99461.59
2019-01-28T16:16:34.223Z,99475.42
2019-01-28T16:21:27.178Z,99484.61
2019-01-28T16:26:20.022Z,99488.59
2019-01-28T16:31:12.963Z,99501.88
2019-01-28T16:36:06.913Z,99521.83
2019-01-28T16:40:59.865Z,99525.53
2019-01-28T16:45:53.051Z,99540.34
2019-01-28T16:50:45.942Z,99547.80
2019-01-28T16:55:38.825Z,99559.37
2019-01-28T17:00:35.238Z,99565.85
2019-01-28T17:05:28.862Z,99573.33
2019-01-28T17:10:21.921Z,99583.54
2019-01-28T17:15:16.133Z,99600.97
2019-01-28T17:20:13.671Z,99609.78
2019-01-28T17:25:10.894Z,99615.23
2019-01-28T17:30:09.298Z,99626.91
2019-01-28T17:35:02.441Z,99635.58
2019-01-28T17:39:55.280Z,99644.02
2019-01-28T17:44:48.322Z,99652.88
2019-01-28T17:49:41.485Z,99659.55
2019-01-28T17:54:34.457Z,99677.64
2019-01-28T17:59:27.539Z,99686.60
2019-01-28T18:04:20.362Z,99704.75
2019-01-28T18:09:13.287Z,99713.72
2019-01-28T18:14:06.227Z,99718.47
2019-01-28T18:18:59.341Z,99727.28
2019-01-28T18:23:53.438Z,99738.50
2019-01-28T18:28:46.644Z,99733.87
2019-01-28T18:33:39.509Z,99737.24
2019-01-28T18:38:32.547Z,99746.88
2019-01-28T18:43:27.304Z,99765.63
2019-01-28T18:48:20.263Z,99776.03
2019-01-28T18:53:13.271Z,99773.22
2019-01-28T18:58:06.647Z,99776.58
2019-01-28T19:02:59.835Z,99787.16
2019-01-28T19:07:56.994Z,99799.92
2019-01-28T19:12:59.675Z,99809.53
2019-01-28T19:18:15.088Z,99814.48
2019-01-28T19:23:08.061Z,99826.23
2019-01-28T19:28:01.023Z,99837.73
2019-01-28T19:32:53.949Z,99851.26
2019-01-28T19:37:47.233Z,99857.30
2019-01-28T19:42:40.211Z,99852.06
2019-01-28T19:47:33.537Z,99862.58
2019-01-28T19:52:26.568Z,99867.54
2019-01-28T19:57:19.518Z,99880.70
2019-01-28T20:02:12.569Z,99885.77
2019-01-28T20:07:05.755Z,99890.35
2019-01-28T20:11:58.743Z,99906.51
2019-01-28T20:16:51.798Z,99911.96
2019-01-28T20:21:44.772Z,99916.70
2019-01-28T20:26:37.842Z,99920.29
2019-01-28T20:31:30.751Z,99926.22
2019-01-28T20:36:23.808Z,99935.09
2019-01-28T20:41:16.899Z,99949.33
2019-01-28T20:46:09.846Z,99955.55
2019-01-28T20:51:02.817Z,99959.03
2019-01-28T20:55:55.702Z,99963.11
2019-01-28T21:00:48.796Z,99968.53
2019-01-28T21:05:41.682Z,99977.81
2019-01-28T21:10:34.537Z,99975.25
2019-01-28T21:15:27.635Z,99985.41
2019-01-28T21:20:20.672Z,99987.45
2019-01-28T21:25:17.436Z,99987.56
2019-01-28T21:30:14.865Z,99989.91
2019-01-28T21:35:09.240Z,99990.16
2019-01-28T21:40:02.357Z,99993.75
2019-01-28T21:44:55.208Z,100002.77
2019-01-28T21:49:48.249Z,100003.22
2019-01-28T21:54:41.373Z,100011.05
2019-01-28T21:59:34.197Z,100013.20
2019-01-28T22:04:27.168Z,100023.66
2019-01-28T22:09:20.363Z,100028.38
2019-01-28T22:14:13.196Z,100025.84
2019-01-28T22:19:06.119Z,100029.06
2019-01-28T22:23:59.063Z,100031.83
2019-01-28T22:28:51.972Z,100042.27
2019-01-28T22:33:45.085Z,100044.44
2019-01-28T22:38:38.397Z,100054.20
2019-01-28T22:43:31.294Z,100052.03
2019-01-28T22:48:24.290Z,100060.22
2019-01-28T22:53:17.213Z,100060.20
2019-01-28T22:58:10.076Z,100059.41
2019-01-28T23:03:04.006Z,100068.15
2019-01-28T23:07:56.995Z,100061.47
2019-01-28T23:12:49.856Z,100071.60
2019-01-28T23:17:42.660Z,100071.25
2019-01-28T23:22:35.572Z,100081.30
2019-01-28T23:27:28.569Z,100099.38
2019-01-28T23:32:21.443Z,100103.19
2019-01-28T23:37:14.282Z,100105.09
2019-01-28T23:42:07.345Z,100112.75
2019-01-28T23:47:00.210Z,100113.73
2019-01-28T23:51:53.111Z,100115.42
2019-01-28T23:56:45.970Z,100117.08
